Time,TemperatureF,DewpointF,PressureIn,WindDirection,WindDirectionDegrees,WindSpeedMPH,WindSpeedGustMPH,Humidity,HourlyPrecipIn,Conditions,Clouds,dailyrainin,SoftwareType,DateUTC
2013-07-25 00:00:00,49.7,49.7,19.99,North,0,0.0,1.0,100,0.00,,---,0.00,VWS V13.00,2013-07-25 04:00:00,
2013-07-25 00:30:00,48.9,48.9,19.99,North,0,0.0,1.0,100,0.00,,---,0.00,VWS V13.00,2013-07-25 04:30:00,
2013-07-25 01:00:00,48.6,48.6,19.99,North,355,1.0,5.0,100,0.00,,---,0.00,VWS V13.00,2013-07-25 05:00:00,
2013-07-25 01:30:00,48.7,48.7,19.99,North,355,0.0,2.0,100,0.00,,---,0.00,VWS V13.00,2013-07-25 05:30:00,
2013-07-25 02:00:00,48.0,48.0,19.99,North,355,0.0,3.0,100,0.00,,---,0.00,VWS V13.00,2013-07-25 06:00:00,
2013-07-25 02:30:00,47.6,47.6,19.99,North,355,0.0,1.0,100,0.00,,---,0.00,VWS V13.00,2013-07-25 06:30:00,
2013-07-25 03:00:00,47.6,47.6,20.00,North,355,0.0,4.0,100,0.00,,---,0.00,VWS V13.00,2013-07-25 07:00:00,
2013-07-25 03:30:00,47.1,47.1,19.99,North,355,0.0,3.0,100,0.00,,---,0.00,VWS V13.00,2013-07-25 07:30:00,
2013-07-25 04:00:00,47.2,47.2,19.99,North,354,0.0,2.0,100,0.00,,---,0.00,VWS V13.00,2013-07-25 08:00:00,
2013-07-25 05:30:00,46.0,46.0,20.00,North,354,0.0,4.0,100,0.00,,---,0.00,VWS V13.00,2013-07-25 09:30:00,
2013-07-25 06:00:00,45.8,45.8,19.99,North,354,0.0,0.0,100,0.00,,---,0.00,VWS V13.00,2013-07-25 10:00:00,
2013-07-25 06:30:00,50.2,50.2,19.99,North,354,0.0,3.0,100,0.00,,---,0.00,VWS V13.00,2013-07-25 10:30:00,
2013-07-25 07:00:00,51.7,51.7,19.99,North,354,0.0,3.0,100,0.00,,---,0.00,VWS V13.00,2013-07-25 11:00:00,
2013-07-25 07:30:00,54.1,54.1,19.99,North,354,1.0,4.0,100,0.00,,---,0.00,VWS V13.00,2013-07-25 11:30:00,
2013-07-25 08:00:00,55.7,55.7,19.99,NE,35,3.0,6.0,100,0.00,,---,0.00,VWS V13.00,2013-07-25 12:00:00,
2013-07-25 08:30:00,57.3,57.3,19.99,NNE,21,3.0,9.0,100,0.00,,---,0.00,VWS V13.00,2013-07-25 12:30:00,
2013-07-25 09:00:00,58.3,58.3,19.99,NNE,19,4.0,7.0,100,0.00,,---,0.00,VWS V13.00,2013-07-25 13:00:00,
2013-07-25 09:30:00,59.8,59.8,19.99,NE,54,5.0,5.0,100,0.00,,---,0.00,VWS V13.00,2013-07-25 13:30:00,
2013-07-25 10:00:00,59.3,59.3,19.99,NE,54,2.0,11.0,100,0.00,,---,0.00,VWS V13.00,2013-07-25 14:00:00,
2013-07-25 10:30:00,59.5,59.5,19.99,NNE,31,3.0,4.0,100,0.00,,---,0.00,VWS V13.00,2013-07-25 14:30:00,
2013-07-25 11:00:00,61.3,61.3,19.99,ESE,120,4.0,6.0,100,0.00,,---,0.00,VWS V13.00,2013-07-25 15:00:00,
2013-07-25 11:30:00,62.0,62.0,19.99,SSE,156,1.0,6.0,100,0.00,,---,0.00,VWS V13.00,2013-07-25 15:30:00,
2013-07-25 12:00:00,60.7,60.7,20.00,ENE,63,0.0,7.0,100,0.00,,---,0.00,VWS V13.00,2013-07-25 16:00:00,
2013-07-25 12:30:00,61.9,61.9,19.99,SSE,147,0.0,8.0,100,0.00,,---,0.00,VWS V13.00,2013-07-25 16:30:00,
2013-07-25 13:00:00,63.0,63.0,19.99,SSE,150,0.0,9.0,100,0.00,,---,0.00,VWS V13.00,2013-07-25 17:00:00,
2013-07-25 13:30:00,63.3,63.3,19.99,NE,39,0.0,5.0,100,0.00,,---,0.00,VWS V13.00,2013-07-25 17:30:00,
2013-07-25 14:00:00,65.3,65.3,19.99,NE,42,5.0,6.0,100,0.00,,---,0.00,VWS V13.00,2013-07-25 18:00:00,
2013-07-25 14:30:00,67.0,67.0,19.99,NNE,20,0.0,5.0,100,0.00,,---,0.00,VWS V13.00,2013-07-25 18:30:00,
2013-07-25 15:00:00,65.8,65.8,19.99,NE,39,0.0,8.0,100,0.00,,---,0.00,VWS V13.00,2013-07-25 19:00:00,
2013-07-25 15:30:00,65.8,65.8,19.99,East,92,0.0,6.0,100,0.00,,---,0.00,VWS V13.00,2013-07-25 19:30:00,
2013-07-25 16:00:00,66.3,66.3,19.99,ESE,123,0.0,10.0,100,0.00,,---,0.00,VWS V13.00,2013-07-25 20:00:00,
2013-07-25 16:30:00,65.5,65.5,19.99,SE,126,0.0,7.0,100,0.00,,---,0.00,VWS V13.00,2013-07-25 20:30:00,
2013-07-25 17:00:00,65.0,65.0,19.99,SSW,192,0.0,5.0,100,0.00,,---,0.00,VWS V13.00,2013-07-25 21:00:00,
2013-07-25 17:30:00,64.9,64.9,19.99,NE,40,1.0,5.0,100,0.00,,---,0.00,VWS V13.00,2013-07-25 21:30:00,
2013-07-25 18:00:00,64.1,64.1,19.99,NE,43,1.0,4.0,100,0.00,,---,0.00,VWS V13.00,2013-07-25 22:00:00,
2013-07-25 18:30:00,63.4,63.4,20.00,NE,49,0.0,5.0,100,0.00,,---,0.00,VWS V13.00,2013-07-25 22:30:00,
2013-07-25 19:00:00,62.9,62.9,19.99,NE,49,0.0,1.0,100,0.00,,---,0.00,VWS V13.00,2013-07-25 23:00:00,
2013-07-25 19:30:00,62.6,62.6,19.99,NE,49,0.0,3.0,100,0.00,,---,0.00,VWS V13.00,2013-07-25 23:30:00,
2013-07-25 20:00:00,62.4,62.4,19.99,NE,49,0.0,0.0,100,0.00,,---,0.00,VWS V13.00,2013-07-26 00:00:00,
2013-07-25 20:30:00,61.7,61.7,19.99,NE,49,0.0,0.0,100,0.00,,---,0.00,VWS V13.00,2013-07-26 00:30:00,
2013-07-25 21:00:00,61.2,61.2,19.99,NE,49,0.0,0.0,100,0.00,,---,0.00,VWS V13.00,2013-07-26 01:00:00,
2013-07-25 21:30:00,60.6,60.6,19.99,NE,49,0.0,1.0,100,0.00,,---,0.00,VWS V13.00,2013-07-26 01:30:00,
2013-07-25 22:00:00,60.0,60.0,19.99,NE,49,0.0,0.0,100,0.00,,---,0.00,VWS V13.00,2013-07-26 02:00:00,
2013-07-25 22:30:00,59.4,59.4,20.00,NE,49,0.0,0.0,100,0.00,,---,0.00,VWS V13.00,2013-07-26 02:30:00,
2013-07-25 23:00:00,58.9,58.9,20.00,NE,49,0.0,0.0,100,0.00,,---,0.00,VWS V13.00,2013-07-26 03:00:00,
2013-07-25 23:30:00,58.8,58.8,19.99,NE,49,0.0,0.0,100,0.00,,---,0.00,VWS V13.00,2013-07-26 03:30:00,